Lima, OH (45807)

5:28 PM EDT on August 23, 2016 (GMT -0400)
Near Allentown | | Change Station

Elev 814 ft 40.76 °N, 84.21 °W | Updated 20 seconds ago

Mostly Cloudy
Mostly Cloudy
81.5 °F
Feels Like 83 °F
N
6.6
Wind Variable Wind from SSW
Gusts 12.1 mph

Today
High -- | Low -- °F
--% Chance of Precip.
Yesterday
High -- | Low -- °F
Precip. -- in
Pressure 30.22 in
Visibility 10.0 miles
Clouds Mostly Cloudy 5000 ft
Heat Index 83 °F
Dew Point 64 °F
Humidity 56%
Rainfall 0.00 in
Snow Depth Not available.
6:55 AM 8:22 PM
Waning Gibbous, 64% visible
METAR KAOH 232053Z AUTO 20007G15KT 10SM BKN050 27/16 A3024 RMK AO2 SLP234 T02670161 56014
Pressure 30.22 in
Visibility 10.0 miles
Clouds Mostly Cloudy 5000 ft
Heat Index 83 °F
Dew Point 64 °F
Humidity 56%
Rainfall 0.00 in
Snow Depth Not available.
6:55 AM 8:22 PM
Waning Gibbous, 64% visible
METAR KAOH 232053Z AUTO 20007G15KT 10SM BKN050 27/16 A3024 RMK AO2 SLP234 T02670161 56014

10-Day Weather Forecast

Almanac

Astronomy

Aug. 23, 2016 Rise Set
Actual Time
Civil Twilight
Nautical Twilight
Astronomical Twilight
Moon
Length of Visible Light
Length of Day
Tomorrow will be .
, % of the Moon is Illuminated

Today's Extremes

State Highs State Lows

Community

WunderPhotos

Upload Photos

1,934,464 photos uploaded!

WunderBlog® & News

Nearby

Air Quality

  Air Quality AQ Index Pollutant
Not available.

Snow Depth

Station Depth Elevation

Earthquake Activity

City Distance Mag. Time & Date
Minimum magnitude displayed is 2.5.

Coastal Water Temperatures

Place Temperature

Stations

Nearby Weather Stations

Station Location Temp. Windchill Dew Point Humidity Wind Precip. Elev Updated Type
                   

Watches & Warnings

There are currently no watches in effect.